EW8331 Weather Reports


Display with metric or nautical units.
time (UTC)temp
F
wind
direction
speed
MPH
gust
MPH
rain 1hr
in
rain 24hr
in
rain mn
in
humidity
%
barometer
mb
20210926033220 60 204 2.0 5.0 0.00 0.00 0.00 75 1013.4
20210926031642 61 198 2.0 4.0 0.00 0.00 0.00 73 1013.3
20210926030149 63 198 3.0 7.0 0.00 0.00 0.00 72 1013.1
20210926024710 64 204 3.0 8.0 0.00 0.00 0.00 70 1012.9
20210926023203 65 256 2.0 9.0 0.00 0.00 0.00 68 1012.9
20210926021559 66 262 2.0 8.0 0.00 0.00 0.00 67 1012.7
20210926014715 69 214 1.0 7.0 0.00 0.00 0.00 62 1012.5
20210926013144 71 205 2.0 6.0 0.00 0.00 0.00 60 1012.4
20210926011626 72 212 2.0 7.0 0.00 0.00 0.00 58 1012.3
20210926010158 73 188 2.0 8.0 0.00 0.00 0.00 56 1012.1
20210926004654 75 260 4.0 8.0 0.00 0.00 0.00 54 1012.2
20210926003144 76 259 4.0 10.0 0.00 0.00 0.00 52 1012.1
20210926001700 77 200 4.0 11.0 0.00 0.00 0.00 50 1012.1
20210926000138 79 165 4.0 9.0 0.00 0.00 0.00 48 1012.0
20210925234634 80 205 5.0 8.0 0.00 0.00 0.00 47 1012.0
20210925233149 80 149 4.0 8.0 0.00 0.00 0.00 46 1011.9
20210925231629 81 212 4.0 8.0 0.00 0.00 0.00 45 1012.0
20210925230219 82 242 4.0 9.0 0.00 0.00 0.00 44 1012.0
20210925224600 82 188 4.0 9.0 0.00 0.00 0.00 44 1012.1
20210925223049 83 198 3.0 7.0 0.00 0.00 0.00 43 1012.2
20210925221551 83 238 4.0 9.0 0.00 0.00 0.00 43 1012.2
20210925220116 83 255 1.0 8.0 0.00 0.00 0.00 43 1012.4
20210925214558 83 233 3.0 8.0 0.00 0.00 0.00 43 1012.6
20210925213123 83 190 3.0 10.0 0.00 0.00 0.00 43 1012.8
20210925211601 82 217 1.0 7.0 0.00 0.00 0.00 45 1012.9
20210925210103 82 229 3.0 7.0 0.00 0.00 0.00 46 1013.1
20210925204629 81 198 2.0 8.0 0.00 0.00 0.00 47 1013.4
20210925203056 81 217 2.0 7.0 0.00 0.00 0.00 47 1013.4
20210925201545 80 208 2.0 9.0 0.00 0.00 0.00 48 1013.5
20210925200030 79 177 2.0 7.0 0.00 0.00 0.00 50 1013.7
20210925194518 78 158 3.0 7.0 0.00 0.00 0.00 50 1013.9
20210925193014 77 198 2.0 7.0 0.00 0.00 0.00 52 1014.0
20210925191521 76 211 2.0 6.0 0.00 0.00 0.00 52 1014.2
20210925190028 75 156 0.0 6.0 0.00 0.00 0.00 55 1014.4
20210925184506 74 239 1.0 7.0 0.00 0.00 0.00 57 1014.5
20210925183007 73 193 3.0 8.0 0.00 0.00 0.00 58 1014.5
20210925181631 71 176 2.0 8.0 0.00 0.00 0.00 62 1014.8
20210925180146 70 165 2.0 6.0 0.00 0.00 0.00 67 1014.9
20210925174642 69 211 3.0 6.0 0.00 0.00 0.00 68 1014.8
20210925173120 68 225 1.0 4.0 0.00 0.00 0.00 71 1014.9
20210925171629 66 222 2.0 4.0 0.00 0.00 0.00 74 1014.9
20210925170202 65 201 1.0 3.0 0.00 0.00 0.00 77 1014.8
20210925164612 64 246 0.0 4.0 0.00 0.00 0.00 81 1014.9
20210925163049 62 201 0.0 4.0 0.00 0.00 0.00 84 1014.8
20210925161558 61 211 0.0 3.0 0.00 0.00 0.00 86 1014.8
20210925160149 61 221 0.0 1.0 0.00 0.00 0.00 89 1014.7
20210925154641 59 262 0.0 1.0 0.00 0.00 0.00 90 1014.6
20210925153139 58 221 0.0 2.0 0.00 0.00 0.00 90 1014.7
20210925151529 57 239 0.0 0.0 0.00 0.00 0.00 91 1014.6
20210925150026 55 240 0.0 0.0 0.00 0.00 0.00 92 1014.6
20210925144526 54 239 0.0 0.0 0.00 0.00 0.00 91 1014.5
20210925143030 54 239 0.0 0.0 0.00 0.00 0.00 91 1014.4
20210925141606 55 239 0.0 0.0 0.00 0.00 0.00 91 1014.3
20210925140025 55 239 0.0 0.0 0.00 0.00 0.00 90 1014.2
20210925134550 54 239 0.0 0.0 0.00 0.00 0.00 89 1014.1
20210925133046 55 239 0.0 0.0 0.00 0.00 0.00 89 1014.1
20210925131515 55 239 0.0 0.0 0.00 0.00 0.00 88 1013.9
20210925130018 55 239 0.0 0.0 0.00 0.00 0.00 88 1013.8
20210925124536 56 240 0.0 1.0 0.00 0.00 0.00 88 1013.9
20210925123014 56 239 0.0 0.0 0.00 0.00 0.00 87 1013.8
20210925121605 56 239 0.0 1.0 0.00 0.00 0.00 87 1013.8
20210925120052 57 239 0.0 1.0 0.00 0.00 0.00 86 1013.7
20210925114538 57 239 0.0 1.0 0.00 0.00 0.00 86 1013.7
20210925113052 57 239 0.0 1.0 0.00 0.00 0.00 86 1013.7
20210925111618 57 236 0.0 1.0 0.00 0.00 0.00 85 1013.7
20210925110035 57 204 0.0 2.0 0.00 0.00 0.00 85 1013.6
20210925104549 57 236 0.0 1.0 0.00 0.00 0.00 84 1013.6
20210925103050 57 211 0.0 0.0 0.00 0.00 0.00 83 1013.6
20210925101547 58 211 0.0 1.0 0.00 0.00 0.00 81 1013.6
20210925100031 59 208 0.0 2.0 0.00 0.00 0.00 81 1013.7
20210925094548 59 239 0.0 1.0 0.00 0.00 0.00 81 1013.6
20210925093025 59 239 0.0 1.0 0.00 0.00 0.00 78 1013.5
20210925091527 60 100 0.0 0.0 0.00 0.00 0.00 77 1013.6
20210925090028 61 101 0.0 0.0 0.00 0.00 0.00 74 1013.6
20210925084539 61 119 0.0 1.0 0.00 0.00 0.00 69 1013.5
20210925083011 61 166 0.0 2.0 0.00 0.00 0.00 67 1013.4
20210925081509 62 207 0.0 0.0 0.00 0.00 0.00 65 1013.3
20210925080008 62 207 0.0 1.0 0.00 0.00 0.00 64 1013.3
20210925074511 63 221 0.0 3.0 0.00 0.00 0.00 63 1013.3
20210925073000 62 203 0.0 3.0 0.00 0.00 0.00 63 1013.3
20210925071739 62 246 0.0 1.0 0.00 0.00 0.00 61 1013.0
20210925070223 62 191 0.0 1.0 0.00 0.00 0.00 58 1012.9
20210925064629 62 192 0.0 1.0 0.00 0.00 0.00 57 1013.0
20210925063133 62 191 0.0 1.0 0.00 0.00 0.00 56 1012.8
20210925061627 63 190 0.0 0.0 0.00 0.00 0.00 53 1012.7
20210925060057 64 188 0.0 1.0 0.00 0.00 0.00 52 1012.8
20210925054721 64 194 0.0 2.0 0.00 0.00 0.00 52 1012.7
20210925053101 65 207 0.0 2.0 0.00 0.00 0.00 50 1012.6
20210925051910 66 221 0.0 2.0 0.00 0.00 0.00 50 1012.6
20210925050141 66 210 0.0 1.0 0.00 0.00 0.00 49 1012.6
20210925044633 66 242 0.0 1.0 0.00 0.00 0.00 47 1012.4
20210925043101 67 242 0.0 1.0 0.00 0.00 0.00 45 1012.3
20210925041706 68 225 0.0 1.0 0.00 0.00 0.00 43 1012.3
20210925040053 69 201 0.0 1.0 0.00 0.00 0.00 40 1012.2
20210925034619 70 228 0.0 3.0 0.00 0.00 0.00 41 1011.9